Time;durP1;ratioP1;P1;durP2;ratioP2;P2;SDS_P1;SDS_P2;PMS_P1;PMS_P2;Temp;Humidity;BMP_temperature;BMP_pressure;BME280_temperature;BME280_humidity;BME280_pressure;Samples;Min_cycle;Max_cycle;Signal;HPM_P1;HPM_P2
2022/07/23 00:00:23;;;;;;;10.37;7.83;;;25.10;18.70;;;;;;5064321;28;20457;-67
2022/07/23 00:02:49;;;;;;;18.47;9.10;;;25.00;19.70;;;;;;5056930;28;20466;-68
2022/07/23 00:05:16;;;;;;;9.60;7.20;;;24.90;20.00;;;;;;5063927;28;20468;-69
2022/07/23 00:07:43;;;;;;;9.70;7.30;;;24.90;20.50;;;;;;5079368;22;20509;-69
2022/07/23 00:10:10;;;;;;;13.90;7.67;;;24.80;20.80;;;;;;5065323;28;20496;-70
2022/07/23 00:12:38;;;;;;;10.17;7.10;;;24.60;22.00;;;;;;5066100;28;20550;-68
2022/07/23 00:15:06;;;;;;;14.77;8.60;;;24.40;22.70;;;;;;5070238;28;20951;-68
2022/07/23 00:17:34;;;;;;;11.97;8.27;;;24.40;22.40;;;;;;5069307;28;20567;-68
2022/07/23 00:20:01;;;;;;;11.30;7.60;;;24.20;22.00;;;;;;5065019;28;20457;-67
2022/07/23 00:22:29;;;;;;;12.40;8.73;;;24.10;22.00;;;;;;5064287;28;20469;-68
2022/07/23 00:24:55;;;;;;;15.37;9.10;;;24.10;22.40;;;;;;5062391;28;20465;-67
2022/07/23 00:27:22;;;;;;;9.87;8.20;;;24.00;22.90;;;;;;5064376;28;21054;-70
2022/07/23 00:29:49;;;;;;;12.03;8.00;;;23.90;23.40;;;;;;5067805;28;20503;-68
2022/07/23 00:32:16;;;;;;;13.07;8.30;;;23.90;24.50;;;;;;5064105;28;21043;-67
2022/07/23 00:34:44;;;;;;;12.10;7.10;;;23.90;24.90;;;;;;5066821;28;20964;-68
2022/07/23 00:37:11;;;;;;;10.97;7.20;;;23.90;23.50;;;;;;5070961;28;20489;-68
2022/07/23 00:39:37;;;;;;;11.30;8.13;;;23.90;23.10;;;;;;5062479;28;20989;-69
2022/07/23 00:42:04;;;;;;;11.63;9.40;;;23.80;23.70;;;;;;5067109;28;20468;-68
2022/07/23 00:44:31;;;;;;;14.33;8.60;;;23.80;24.00;;;;;;5064764;28;20468;-69
2022/07/23 00:46:59;;;;;;;11.43;8.30;;;23.70;24.90;;;;;;5063388;28;20801;-69
2022/07/23 00:49:29;;;;;;;11.33;7.60;;;23.60;26.20;;;;;;5062918;28;20461;-66
2022/07/23 00:51:58;;;;;;;10.60;7.63;;;23.50;25.50;;;;;;5064256;28;20834;-68
2022/07/23 00:54:27;;;;;;;10.07;6.77;;;23.40;24.90;;;;;;5064939;28;20465;-68
2022/07/23 00:56:54;;;;;;;11.80;8.40;;;23.40;24.90;;;;;;5068530;28;20492;-67
2022/07/23 00:59:21;;;;;;;9.93;7.27;;;23.30;26.20;;;;;;5067454;28;20457;-67
2022/07/23 01:01:48;;;;;;;9.07;7.30;;;23.20;27.30;;;;;;5060751;28;20473;-69
2022/07/23 01:04:16;;;;;;;9.33;7.63;;;23.10;27.50;;;;;;5068608;28;21009;-69
2022/07/23 01:06:44;;;;;;;10.17;7.60;;;23.00;26.90;;;;;;5063998;28;20493;-67
2022/07/23 01:09:13;;;;;;;8.87;7.00;;;22.90;27.00;;;;;;5064745;28;20472;-68
2022/07/23 01:11:41;;;;;;;8.90;7.63;;;22.90;27.20;;;;;;5064843;28;20484;-71
2022/07/23 01:14:12;;;;;;;9.30;6.90;;;22.80;26.70;;;;;;5065240;28;20468;-68
2022/07/23 01:16:40;;;;;;;8.80;7.33;;;22.80;25.40;;;;;;5062815;28;20485;-67
2022/07/23 01:19:06;;;;;;;9.30;7.20;;;22.70;25.70;;;;;;5061172;28;20456;-67
2022/07/23 01:21:37;;;;;;;9.10;7.70;;;22.70;25.80;;;;;;5063070;28;20461;-67
2022/07/23 01:24:06;;;;;;;10.07;6.50;;;22.60;25.70;;;;;;5063061;28;20836;-68
2022/07/23 01:26:33;;;;;;;12.20;7.60;;;22.60;26.40;;;;;;5068392;28;20480;-68
2022/07/23 01:29:00;;;;;;;11.13;7.90;;;22.60;26.40;;;;;;5063981;28;20457;-67
2022/07/23 01:31:27;;;;;;;10.70;7.17;;;22.60;27.40;;;;;;5064094;28;20480;-67
2022/07/23 01:33:54;;;;;;;8.80;7.13;;;22.50;28.60;;;;;;5065949;28;20826;-67
2022/07/23 01:36:21;;;;;;;11.03;7.33;;;22.50;27.40;;;;;;5068726;28;20484;-67
2022/07/23 01:38:47;;;;;;;9.27;7.90;;;22.40;27.60;;;;;;5065474;28;20461;-68
2022/07/23 01:41:16;;;;;;;9.23;8.20;;;22.40;28.30;;;;;;5065147;28;20473;-67
2022/07/23 01:43:43;;;;;;;15.00;10.03;;;22.30;28.10;;;;;;5062804;28;20505;-67
2022/07/23 01:46:10;;;;;;;11.63;10.07;;;22.30;28.90;;;;;;5064550;28;20485;-69
2022/07/23 01:48:37;;;;;;;10.17;9.03;;;22.20;29.00;;;;;;5062957;28;20837;-67
2022/07/23 01:51:04;;;;;;;11.43;8.70;;;22.20;29.30;;;;;;5063907;28;20481;-69
2022/07/23 01:53:31;;;;;;;11.30;8.43;;;22.20;30.10;;;;;;5062351;28;20461;-68
2022/07/23 01:55:59;;;;;;;12.80;8.83;;;22.20;30.40;;;;;;5059868;28;20895;-70
2022/07/23 01:58:28;;;;;;;11.27;9.17;;;22.10;31.60;;;;;;5060707;28;20653;-67
2022/07/23 02:00:55;;;;;;;13.47;10.50;;;22.10;32.70;;;;;;5062910;28;20473;-66
2022/07/23 02:03:22;;;;;;;13.07;10.70;;;22.00;32.90;;;;;;5053831;28;20465;-68
2022/07/23 02:05:49;;;;;;;11.83;10.57;;;22.00;32.70;;;;;;5061099;28;20643;-68
2022/07/23 02:08:17;;;;;;;12.53;11.17;;;21.90;33.00;;;;;;5056598;28;20466;-67
2022/07/23 02:10:43;;;;;;;13.80;10.87;;;21.90;33.30;;;;;;5062317;28;20833;-68
2022/07/23 02:13:10;;;;;;;15.30;11.50;;;21.80;33.50;;;;;;5065289;28;20461;-68
2022/07/23 02:15:38;;;;;;;284.70;102.83;;;21.80;33.50;;;;;;5062037;28;20466;-68
2022/07/23 02:18:05;;;;;;;13.67;12.20;;;21.70;33.80;;;;;;5064252;28;20487;-67
2022/07/23 02:20:33;;;;;;;13.80;10.67;;;21.70;33.80;;;;;;5063842;28;20461;-68
2022/07/23 02:23:00;;;;;;;15.03;10.90;;;21.70;34.00;;;;;;5066043;28;20472;-68
2022/07/23 02:25:26;;;;;;;12.33;11.03;;;21.60;33.80;;;;;;5064358;28;20457;-69
2022/07/23 02:27:53;;;;;;;13.47;10.70;;;21.60;34.10;;;;;;5065763;28;20489;-68
2022/07/23 02:30:20;;;;;;;18.97;11.07;;;21.50;33.80;;;;;;5063241;28;20969;-69
2022/07/23 02:32:48;;;;;;;12.93;10.70;;;21.50;34.10;;;;;;5063003;28;20697;-68
2022/07/23 02:35:15;;;;;;;16.30;11.50;;;21.40;34.40;;;;;;5065799;28;20464;-68
2022/07/23 02:37:41;;;;;;;13.00;11.10;;;21.40;34.90;;;;;;5069280;28;20477;-68
2022/07/23 02:40:09;;;;;;;15.80;11.20;;;21.30;35.00;;;;;;5066644;28;20476;-68
2022/07/23 02:42:36;;;;;;;17.10;11.50;;;21.30;35.30;;;;;;5069746;28;20467;-68
2022/07/23 02:45:03;;;;;;;12.00;10.57;;;21.30;35.10;;;;;;5067695;28;20457;-69
2022/07/23 02:47:31;;;;;;;12.53;11.13;;;21.30;35.10;;;;;;5063865;28;20834;-68
2022/07/23 02:49:59;;;;;;;13.57;10.70;;;21.20;35.30;;;;;;5069905;28;20461;-68
2022/07/23 02:52:26;;;;;;;14.67;11.13;;;21.10;35.30;;;;;;5065691;28;20480;-68
2022/07/23 02:54:53;;;;;;;14.93;11.10;;;21.10;35.30;;;;;;5066170;28;20481;-67
2022/07/23 02:57:20;;;;;;;13.77;11.50;;;21.10;35.30;;;;;;5064505;28;20481;-67
2022/07/23 02:59:46;;;;;;;13.00;11.00;;;21.10;35.20;;;;;;5067510;28;20468;-67
2022/07/23 03:02:13;;;;;;;14.57;11.33;;;21.10;34.70;;;;;;5064864;28;20996;-67
2022/07/23 03:04:42;;;;;;;15.80;10.40;;;21.10;34.70;;;;;;5066277;28;20492;-68
2022/07/23 03:07:10;;;;;;;15.40;11.93;;;21.10;34.50;;;;;;5064994;28;20488;-68
2022/07/23 03:09:37;;;;;;;12.20;10.87;;;21.10;35.70;;;;;;5064978;28;20461;-68
2022/07/23 03:12:04;;;;;;;14.60;10.30;;;21.20;35.20;;;;;;5062770;28;20482;-71
2022/07/23 03:14:30;;;;;;;11.60;10.40;;;21.20;35.30;;;;;;5065450;28;20461;-68
2022/07/23 03:16:59;;;;;;;12.80;10.60;;;21.30;35.10;;;;;;5065851;28;20477;-67
2022/07/23 03:19:26;;;;;;;13.57;10.80;;;21.20;35.00;;;;;;5070074;28;20860;-70
2022/07/23 03:21:53;;;;;;;15.37;12.00;;;21.30;35.00;;;;;;5066298;28;20461;-68
2022/07/23 03:24:23;;;;;;;14.43;11.27;;;21.30;35.30;;;;;;5067593;28;20461;-66
2022/07/23 03:26:50;;;;;;;12.00;10.23;;;21.40;34.70;;;;;;5066088;28;20481;-68
2022/07/23 03:29:17;;;;;;;15.57;11.40;;;21.40;34.30;;;;;;5065369;28;20842;-67
2022/07/23 03:31:44;;;;;;;15.80;10.27;;;21.40;34.30;;;;;;5066029;28;20477;-69
2022/07/23 03:34:10;;;;;;;13.57;11.03;;;21.30;34.50;;;;;;5064231;28;20466;-66
2022/07/23 03:36:37;;;;;;;14.23;9.80;;;21.30;34.30;;;;;;5062543;28;20485;-68
2022/07/23 03:39:04;;;;;;;14.10;10.23;;;21.20;34.10;;;;;;5068471;28;20462;-67
2022/07/23 03:41:32;;;;;;;13.57;10.23;;;21.20;33.90;;;;;;5070609;28;20453;-69
2022/07/23 03:43:59;;;;;;;11.90;10.60;;;21.20;33.50;;;;;;5067192;28;20472;-67
2022/07/23 03:46:26;;;;;;;10.97;9.70;;;21.20;33.80;;;;;;5065222;28;20492;-67
2022/07/23 03:48:52;;;;;;;11.70;9.50;;;21.20;33.10;;;;;;5067358;28;20465;-67
2022/07/23 03:51:19;;;;;;;14.50;9.57;;;21.20;32.90;;;;;;5066913;28;20484;-66
2022/07/23 03:53:46;;;;;;;12.63;9.30;;;21.20;32.50;;;;;;5067193;28;20488;-69
2022/07/23 03:56:13;;;;;;;12.93;9.53;;;21.20;32.30;;;;;;5067102;28;20504;-67
2022/07/23 03:58:41;;;;;;;10.83;8.47;;;21.20;31.90;;;;;;5061072;28;20495;-67
2022/07/23 04:01:07;;;;;;;10.13;8.70;;;21.30;31.70;;;;;;5054852;28;20484;-66
2022/07/23 04:03:34;;;;;;;11.07;9.93;;;21.30;31.50;;;;;;5062238;28;20461;-68
2022/07/23 04:06:01;;;;;;;11.83;8.80;;;21.20;31.60;;;;;;5059373;28;20467;-68
2022/07/23 04:08:28;;;;;;;11.30;9.17;;;21.30;31.80;;;;;;5064422;28;20471;-69
2022/07/23 04:10:54;;;;;;;11.50;9.30;;;21.30;31.80;;;;;;5065443;28;20462;-67
2022/07/23 04:13:21;;;;;;;10.27;9.17;;;21.30;32.60;;;;;;5068376;28;20469;-68
2022/07/23 04:15:50;;;;;;;12.80;9.93;;;21.40;32.00;;;;;;5062411;28;20463;-68
2022/07/23 04:18:18;;;;;;;13.47;8.83;;;21.30;32.10;;;;;;5059454;28;20960;-66
2022/07/23 04:20:44;;;;;;;11.90;9.17;;;21.30;32.20;;;;;;5061346;28;20466;-68
2022/07/23 04:23:12;;;;;;;13.00;9.17;;;21.30;32.50;;;;;;5063415;28;20465;-67
2022/07/23 04:25:39;;;;;;;10.57;9.20;;;21.30;32.30;;;;;;5060355;28;20465;-68
2022/07/23 04:28:05;;;;;;;12.33;10.13;;;21.30;32.00;;;;;;5064119;28;20485;-66
2022/07/23 04:30:32;;;;;;;12.07;10.10;;;21.30;32.00;;;;;;5062692;28;21185;-70
2022/07/23 04:33:00;;;;;;;19.13;11.90;;;21.30;32.20;;;;;;5067696;28;20489;-66
2022/07/23 04:35:27;;;;;;;14.67;10.30;;;21.30;33.30;;;;;;5062331;28;20477;-67
2022/07/23 04:37:54;;;;;;;16.30;10.50;;;21.40;34.00;;;;;;5065876;28;21017;-68
2022/07/23 04:40:21;;;;;;;15.13;10.90;;;21.50;35.40;;;;;;5062945;28;20465;-67
2022/07/23 04:42:48;;;;;;;16.10;10.73;;;21.50;34.80;;;;;;5064647;28;20535;-67
2022/07/23 04:45:14;;;;;;;11.80;10.43;;;21.50;34.30;;;;;;5066428;28;20468;-71
2022/07/23 04:47:41;;;;;;;15.60;10.17;;;21.50;34.20;;;;;;5063619;28;20485;-67
2022/07/23 04:50:09;;;;;;;10.90;9.57;;;21.40;33.80;;;;;;5064685;28;20818;-71
2022/07/23 04:52:36;;;;;;;13.20;10.00;;;21.30;33.70;;;;;;5060670;28;20481;-68
2022/07/23 04:55:04;;;;;;;11.30;9.43;;;21.30;33.90;;;;;;5065022;28;20458;-67
2022/07/23 04:57:30;;;;;;;12.60;9.97;;;21.30;33.90;;;;;;5063589;28;20481;-67
2022/07/23 04:59:57;;;;;;;10.93;9.47;;;21.40;34.20;;;;;;5067688;28;20957;-67
2022/07/23 05:02:24;;;;;;;11.17;9.73;;;21.40;33.40;;;;;;5062750;28;20499;-68
2022/07/23 05:04:51;;;;;;;11.37;10.03;;;21.40;33.30;;;;;;5064168;28;20476;-68
2022/07/23 05:07:19;;;;;;;13.27;9.60;;;21.40;33.10;;;;;;5066969;28;20828;-68
2022/07/23 05:09:45;;;;;;;14.57;10.10;;;21.40;32.90;;;;;;5064632;28;20457;-67
2022/07/23 05:12:12;;;;;;;10.90;9.50;;;21.40;33.30;;;;;;5063208;28;20477;-67
2022/07/23 05:14:39;;;;;;;13.27;10.43;;;21.40;33.60;;;;;;5060506;28;20481;-67
2022/07/23 05:17:07;;;;;;;13.50;9.80;;;21.50;34.20;;;;;;5062500;28;20485;-67
2022/07/23 05:19:34;;;;;;;12.20;9.87;;;21.50;34.70;;;;;;5061244;28;20500;-68
2022/07/23 05:22:01;;;;;;;14.17;10.20;;;21.50;34.00;;;;;;5063779;28;21025;-68
2022/07/23 05:24:29;;;;;;;12.13;9.90;;;21.50;34.00;;;;;;5063777;28;20449;-67
2022/07/23 05:26:56;;;;;;;11.27;9.70;;;21.50;34.00;;;;;;5064139;28;20491;-69
2022/07/23 05:29:22;;;;;;;12.40;8.80;;;21.60;33.90;;;;;;5062439;28;21140;-64
2022/07/23 05:31:49;;;;;;;11.93;9.53;;;21.60;33.50;;;;;;5063171;28;20481;-64
2022/07/23 05:34:16;;;;;;;12.23;9.77;;;21.60;33.20;;;;;;5066809;28;20501;-68
2022/07/23 05:36:43;;;;;;;11.20;9.20;;;21.60;33.10;;;;;;5066674;28;20496;-67
2022/07/23 05:39:09;;;;;;;10.70;9.40;;;21.60;33.10;;;;;;5069063;28;20469;-69
2022/07/23 05:41:38;;;;;;;12.97;9.93;;;21.70;33.00;;;;;;5060557;28;21929;-68
2022/07/23 05:44:05;;;;;;;16.13;10.07;;;21.70;33.10;;;;;;5065354;28;20965;-66
2022/07/23 05:46:31;;;;;;;15.73;10.53;;;21.70;33.20;;;;;;5064103;28;21054;-67
2022/07/23 05:48:58;;;;;;;12.03;10.57;;;21.70;33.00;;;;;;5063420;28;20485;-68
2022/07/23 05:51:26;;;;;;;12.80;11.00;;;21.80;32.80;;;;;;5062363;28;20468;-67
2022/07/23 05:53:53;;;;;;;12.53;10.90;;;21.90;33.00;;;;;;5067957;28;20464;-67
2022/07/23 05:56:20;;;;;;;14.40;10.83;;;21.90;32.80;;;;;;5064882;28;20790;-68
2022/07/23 05:58:48;;;;;;;11.33;9.77;;;22.00;32.30;;;;;;5063123;28;20484;-67
2022/07/23 06:01:15;;;;;;;13.83;10.67;;;22.00;31.50;;;;;;5064513;28;21000;-66
2022/07/23 06:03:42;;;;;;;12.97;10.87;;;22.10;30.90;;;;;;5065898;28;20464;-67
2022/07/23 06:06:12;;;;;;;13.37;10.40;;;22.10;30.70;;;;;;5064780;28;20495;-70
2022/07/23 06:08:38;;;;;;;11.17;9.93;;;22.20;30.50;;;;;;5061172;28;20454;-68
2022/07/23 06:11:05;;;;;;;11.13;9.70;;;22.30;30.30;;;;;;5067502;28;20457;-67
2022/07/23 06:13:32;;;;;;;13.97;10.13;;;22.30;30.30;;;;;;5071991;28;21004;-67
2022/07/23 06:16:00;;;;;;;11.13;9.40;;;22.40;29.90;;;;;;5066777;28;20468;-68
2022/07/23 06:18:27;;;;;;;14.50;10.13;;;22.50;29.00;;;;;;5066757;28;20501;-68
2022/07/23 06:20:54;;;;;;;11.33;8.63;;;22.50;29.00;;;;;;5067027;28;20484;-69
2022/07/23 06:23:21;;;;;;;12.43;10.70;;;22.50;28.90;;;;;;5065510;28;20457;-68
2022/07/23 06:25:47;;;;;;;12.20;9.80;;;22.50;29.20;;;;;;5068426;28;20956;-70
2022/07/23 06:28:15;;;;;;;11.47;9.03;;;22.60;28.80;;;;;;5068208;28;20695;-67
2022/07/23 06:30:42;;;;;;;12.10;9.90;;;22.60;28.70;;;;;;5066638;28;21164;-68
2022/07/23 06:33:11;;;;;;;11.70;9.50;;;22.70;28.60;;;;;;5067155;28;20472;-69
2022/07/23 06:35:38;;;;;;;9.90;8.87;;;22.70;28.20;;;;;;5066116;28;20885;-67
2022/07/23 06:38:04;;;;;;;14.00;9.40;;;22.90;27.80;;;;;;5064812;28;20476;-67
2022/07/23 06:40:31;;;;;;;13.53;9.17;;;22.90;27.30;;;;;;5066558;28;20885;-68
2022/07/23 06:42:58;;;;;;;11.50;8.73;;;22.90;26.60;;;;;;5068824;28;20677;-64
2022/07/23 06:45:25;;;;;;;13.70;10.53;;;22.90;26.50;;;;;;5066843;28;20467;-63
2022/07/23 06:47:52;;;;;;;12.07;10.57;;;22.80;26.70;;;;;;5068585;28;20477;-61
2022/07/23 06:50:20;;;;;;;10.50;8.83;;;22.80;26.60;;;;;;5065588;28;20458;-61
2022/07/23 06:52:47;;;;;;;11.90;9.50;;;22.80;26.80;;;;;;5066967;28;20573;-62
2022/07/23 06:55:14;;;;;;;12.60;9.80;;;22.80;27.30;;;;;;5063755;28;20461;-63
2022/07/23 06:57:40;;;;;;;10.53;9.27;;;22.80;27.60;;;;;;5064337;28;20868;-62
2022/07/23 07:00:08;;;;;;;11.93;9.90;;;22.80;27.70;;;;;;5071131;28;20457;-62
2022/07/23 07:02:35;;;;;;;10.63;9.17;;;22.80;27.60;;;;;;5068522;28;20477;-62
2022/07/23 07:05:02;;;;;;;12.63;10.57;;;22.80;27.90;;;;;;5072242;28;20464;-62
2022/07/23 07:07:31;;;;;;;11.40;10.10;;;22.90;28.00;;;;;;5070019;28;20489;-63
2022/07/23 07:09:57;;;;;;;12.83;9.50;;;22.90;28.30;;;;;;5068119;28;20453;-62
2022/07/23 07:12:24;;;;;;;10.63;9.53;;;23.10;27.70;;;;;;5068642;28;20484;-61
2022/07/23 07:14:51;;;;;;;10.27;9.13;;;23.40;26.90;;;;;;5067010;28;20464;-61
2022/07/23 07:17:17;;;;;;;10.37;8.93;;;23.90;27.00;;;;;;5061516;28;20680;-66
2022/07/23 07:19:44;;;;;;;9.97;8.20;;;25.80;25.00;;;;;;5058428;28;22683;-67
2022/07/23 07:22:11;;;;;;;9.90;7.83;;;29.70;17.40;;;;;;5059286;28;21167;-66
2022/07/23 07:24:39;;;;;;;8.87;7.70;;;33.30;9.70;;;;;;5064131;28;20467;-65
2022/07/23 07:27:06;;;;;;;8.30;7.30;;;36.00;5.90;;;;;;5064917;28;20493;-65
2022/07/23 07:29:33;;;;;;;8.33;6.77;;;38.60;1.80;;;;;;5069851;28;20468;-66
2022/07/23 07:31:59;;;;;;;9.87;6.57;;;40.30;1.00;;;;;;5061867;28;20477;-69
2022/07/23 07:34:26;;;;;;;9.20;6.43;;;41.90;1.00;;;;;;5065815;28;20461;-66
2022/07/23 07:36:53;;;;;;;9.10;6.90;;;43.40;1.00;;;;;;5063470;28;20485;-67
2022/07/23 07:39:20;;;;;;;9.33;5.57;;;44.80;1.00;;;;;;5065244;28;20510;-65
2022/07/23 07:41:48;;;;;;;8.37;5.83;;;46.10;1.00;;;;;;5068069;28;20472;-65
2022/07/23 07:44:15;;;;;;;9.17;5.70;;;47.20;1.00;;;;;;5060608;28;20457;-65
2022/07/23 07:46:41;;;;;;;7.57;5.97;;;48.10;1.00;;;;;;5061929;28;20504;-63
2022/07/23 07:49:08;;;;;;;7.93;6.00;;;48.90;1.00;;;;;;5063556;28;20577;-67
2022/07/23 07:51:35;;;;;;;7.70;5.80;;;49.20;1.00;;;;;;5065425;28;20461;-67
2022/07/23 07:54:02;;;;;;;9.20;6.17;;;49.80;1.00;;;;;;5064354;28;20484;-65
2022/07/23 07:56:30;;;;;;;8.20;5.90;;;50.40;1.00;;;;;;5066193;28;20477;-67
2022/07/23 07:58:58;;;;;;;6.70;5.73;;;51.00;1.00;;;;;;5065279;28;20457;-68
2022/07/23 08:01:25;;;;;;;7.27;5.80;;;51.60;1.00;;;;;;5058717;28;20474;-68
2022/07/23 08:03:51;;;;;;;7.23;5.60;;;52.00;1.00;;;;;;5063295;28;23635;-67
2022/07/23 08:06:18;;;;;;;7.17;5.63;;;52.60;1.00;;;;;;5065002;28;20492;-68
2022/07/23 08:08:45;;;;;;;5.00;4.50;;;52.80;1.00;;;;;;5066615;28;20457;-67
2022/07/23 08:11:12;;;;;;;8.13;5.40;;;51.60;1.00;;;;;;5063303;28;20821;-67
2022/07/23 08:13:38;;;;;;;5.67;4.60;;;50.50;1.00;;;;;;5066169;28;21055;-69
2022/07/23 08:16:07;;;;;;;5.97;4.97;;;49.90;1.00;;;;;;5062226;28;21005;-66
2022/07/23 08:18:33;;;;;;;6.07;4.73;;;50.00;1.00;;;;;;5060578;28;20465;-67
2022/07/23 08:21:00;;;;;;;6.53;5.20;;;49.40;1.00;;;;;;5062170;28;20465;-66
2022/07/23 08:23:27;;;;;;;6.47;5.20;;;49.10;1.00;;;;;;5060728;28;20468;-67
2022/07/23 08:25:54;;;;;;;8.97;5.17;;;49.60;1.00;;;;;;5058397;28;20462;-67
2022/07/23 08:28:20;;;;;;;6.00;4.90;;;50.20;1.00;;;;;;5065410;28;20865;-65
2022/07/23 08:30:47;;;;;;;5.90;5.30;;;51.20;1.00;;;;;;5058052;28;20481;-64
2022/07/23 08:33:17;;;;;;;6.90;5.30;;;51.90;1.00;;;;;;5056864;28;20480;-62
2022/07/23 08:35:46;;;;;;;8.77;4.97;;;52.30;1.00;;;;;;5061720;28;20812;-62
2022/07/23 08:38:15;;;;;;;5.77;5.27;;;52.90;1.00;;;;;;5063481;28;20489;-63
2022/07/23 08:40:44;;;;;;;5.67;4.43;;;53.50;1.00;;;;;;5062503;28;20468;-63
2022/07/23 08:43:12;;;;;;;5.27;4.30;;;53.70;1.00;;;;;;5059899;28;20879;-64
2022/07/23 08:45:40;;;;;;;6.17;4.87;;;52.80;1.00;;;;;;5057139;28;20983;-62
2022/07/23 08:48:11;;;;;;;7.03;5.23;;;50.50;1.00;;;;;;5058139;28;20476;-61
2022/07/23 08:50:44;;;;;;;6.00;5.40;;;48.00;1.00;;;;;;5059807;28;20462;-63
2022/07/23 08:53:11;;;;;;;6.53;5.53;;;46.00;1.00;;;;;;5060700;28;22715;-63
2022/07/23 08:55:38;;;;;;;6.43;5.53;;;45.20;1.00;;;;;;5060525;28;20461;-62
2022/07/23 08:58:05;;;;;;;6.77;5.57;;;44.30;1.00;;;;;;5059299;28;20489;-63
2022/07/23 09:00:32;;;;;;;10.83;5.97;;;45.30;1.00;;;;;;5062957;28;20469;-63
2022/07/23 09:02:58;;;;;;;6.47;5.83;;;44.30;1.00;;;;;;5064104;28;20469;-62
2022/07/23 09:05:25;;;;;;;7.03;6.00;;;42.60;1.00;;;;;;5062465;28;20457;-61
2022/07/23 09:08:11;;;;;;;7.00;6.30;;;41.20;1.00;;;;;;5053560;28;21067;-63
2022/07/23 09:10:46;;;;;;;7.17;6.07;;;40.00;1.00;;;;;;5058371;28;20453;-63
2022/07/23 09:13:27;;;;;;;8.00;6.20;;;39.80;1.00;;;;;;5057742;28;20561;-64
2022/07/23 09:15:55;;;;;;;7.80;5.87;;;39.20;1.00;;;;;;5058313;28;20564;-62
2022/07/23 09:18:37;;;;;;;8.57;6.47;;;39.10;1.00;;;;;;5061557;28;20464;-64
2022/07/23 09:21:22;;;;;;;7.80;6.60;;;39.00;1.00;;;;;;5060289;28;20565;-64
2022/07/23 09:23:54;;;;;;;7.70;6.20;;;40.60;1.00;;;;;;5060312;28;20579;-60
2022/07/23 09:26:24;;;;;;;6.90;6.10;;;43.30;1.00;;;;;;5063592;28;21004;-62
2022/07/23 09:28:54;;;;;;;7.73;6.50;;;44.90;1.00;;;;;;5059178;28;20461;-62
2022/07/23 09:31:21;;;;;;;6.57;5.87;;;44.50;1.00;;;;;;5059905;28;21027;-63
2022/07/23 09:33:48;;;;;;;7.13;6.33;;;44.20;1.00;;;;;;5059379;28;20585;-64
2022/07/23 09:36:15;;;;;;;8.87;5.80;;;44.50;1.00;;;;;;5058887;28;20481;-62
2022/07/23 09:38:51;;;;;;;7.20;6.30;;;43.80;1.00;;;;;;5065732;28;20461;-61
2022/07/23 09:41:18;;;;;;;6.27;5.63;;;44.40;1.00;;;;;;5058896;28;20457;-65
2022/07/23 09:43:45;;;;;;;6.90;6.10;;;44.90;1.00;;;;;;5056401;28;20516;-62
2022/07/23 09:46:20;;;;;;;7.90;6.20;;;43.90;1.00;;;;;;5058503;28;20473;-63
2022/07/23 09:48:47;;;;;;;7.60;6.60;;;43.70;1.00;;;;;;5064186;28;20456;-62
2022/07/23 09:51:15;;;;;;;7.10;6.23;;;42.30;1.00;;;;;;5065336;28;20457;-64
2022/07/23 09:53:42;;;;;;;7.83;7.00;;;41.30;1.00;;;;;;5058945;28;20999;-62
2022/07/23 09:56:11;;;;;;;8.20;7.40;;;41.60;1.00;;;;;;5063164;28;20484;-63
2022/07/23 09:58:45;;;;;;;8.07;7.27;;;41.80;1.00;;;;;;5056944;28;20473;-61
2022/07/23 10:01:13;;;;;;;8.00;7.20;;;41.40;1.00;;;;;;5055874;28;22462;-63
2022/07/23 10:03:41;;;;;;;7.30;6.60;;;40.70;1.00;;;;;;5055213;28;20458;-64
2022/07/23 10:06:09;;;;;;;7.93;7.00;;;39.80;1.00;;;;;;5058453;28;20499;-64
2022/07/23 10:08:36;;;;;;;8.07;7.27;;;38.90;1.00;;;;;;5061348;28;20824;-63
2022/07/23 10:11:04;;;;;;;7.43;6.70;;;38.30;1.00;;;;;;5057345;28;20465;-62
2022/07/23 10:16:29;;;;;;;8.53;7.27;;;37.30;1.00;;;;;;4979821;28;21016;-61
2022/07/23 10:18:56;;;;;;;8.00;6.83;;;36.80;1.00;;;;;;5041727;28;21088;-64
2022/07/23 10:21:31;;;;;;;8.50;7.60;;;36.50;1.00;;;;;;5056763;28;20461;-63
2022/07/23 10:24:09;;;;;;;8.67;7.67;;;36.30;1.00;;;;;;5059710;28;20465;-63
2022/07/23 10:26:43;;;;;;;8.67;7.73;;;36.00;1.20;;;;;;5056704;28;20923;-58
2022/07/23 10:29:23;;;;;;;8.00;7.20;;;35.80;1.40;;;;;;5059369;28;20458;-59
2022/07/23 10:31:58;;;;;;;8.57;7.67;;;35.60;1.40;;;;;;5070335;28;21230;-59
2022/07/23 10:34:37;;;;;;;8.63;7.30;;;35.60;1.90;;;;;;5060320;28;20537;-60
2022/07/23 10:37:12;;;;;;;8.87;7.43;;;35.60;1.60;;;;;;5060145;28;20512;-60
2022/07/23 10:39:39;;;;;;;10.60;7.37;;;35.40;1.20;;;;;;5062947;28;20460;-64
2022/07/23 10:42:10;;;;;;;8.67;7.60;;;35.00;2.50;;;;;;5061968;28;20461;-62
2022/07/23 10:44:43;;;;;;;8.50;7.30;;;34.90;2.30;;;;;;5064573;28;20483;-62
2022/07/23 10:50:19;;;;;;;10.70;8.30;;;34.80;2.50;;;;;;5063004;28;20445;-63
2022/07/23 10:53:25;;;;;;;9.10;8.13;;;34.60;2.80;;;;;;5062428;28;20457;-65
2022/07/23 10:55:53;;;;;;;9.53;8.47;;;34.60;3.10;;;;;;5053826;28;20472;-62
2022/07/23 10:58:44;;;;;;;8.17;7.33;;;34.60;3.00;;;;;;5065555;28;20465;-62
2022/07/23 11:01:37;;;;;;;9.67;8.67;;;34.50;3.00;;;;;;5062851;28;20471;-61
2022/07/23 11:04:07;;;;;;;11.60;7.77;;;34.30;3.60;;;;;;5064310;28;20461;-67
2022/07/23 11:07:09;;;;;;;9.13;7.57;;;34.30;4.50;;;;;;5073174;28;20499;-68
2022/07/23 11:09:40;;;;;;;7.60;6.80;;;34.30;3.70;;;;;;5070687;28;20518;-68
2022/07/23 11:12:33;;;;;;;11.10;7.53;;;34.10;4.20;;;;;;5069533;28;20465;-67
2022/07/23 11:15:00;;;;;;;9.70;8.00;;;34.00;4.50;;;;;;5066101;28;20484;-67
2022/07/23 11:17:30;;;;;;;8.77;7.23;;;33.90;4.00;;;;;;5065026;28;20487;-59
2022/07/23 11:20:21;;;;;;;9.27;8.27;;;33.80;4.30;;;;;;5065406;28;20457;-59
2022/07/23 11:22:51;;;;;;;9.23;8.10;;;33.70;4.10;;;;;;5063265;28;20461;-60
2022/07/23 11:25:35;;;;;;;9.33;8.20;;;33.60;4.30;;;;;;5064479;28;20714;-60
2022/07/23 11:28:14;;;;;;;9.40;8.40;;;33.50;4.10;;;;;;5073867;28;20481;-61
2022/07/23 11:30:43;;;;;;;9.70;7.30;;;33.40;4.70;;;;;;5063682;28;20472;-60
2022/07/23 11:33:22;;;;;;;9.80;8.87;;;33.40;5.10;;;;;;5061619;28;20457;-61
2022/07/23 11:36:00;;;;;;;9.93;8.43;;;33.50;4.90;;;;;;5065049;28;20464;-62
2022/07/23 11:38:26;;;;;;;8.70;7.80;;;33.40;4.40;;;;;;5065855;28;20461;-61
2022/07/23 11:40:56;;;;;;;9.00;8.00;;;33.30;4.60;;;;;;5063545;28;20473;-62
2022/07/23 11:43:23;;;;;;;8.30;7.50;;;33.30;4.40;;;;;;5065007;28;21722;-57
2022/07/23 11:45:52;;;;;;;8.40;7.60;;;33.30;6.20;;;;;;5064095;28;20461;-60
2022/07/23 11:48:22;;;;;;;9.00;8.10;;;33.20;5.60;;;;;;5066015;28;20488;-60
2022/07/23 11:50:49;;;;;;;10.60;8.47;;;33.20;5.00;;;;;;5068166;28;20465;-61
2022/07/23 11:53:23;;;;;;;8.83;7.63;;;33.10;5.50;;;;;;5066526;28;20878;-60
2022/07/23 11:55:50;;;;;;;9.07;8.10;;;33.00;5.60;;;;;;5061573;28;20815;-63
2022/07/23 11:58:17;;;;;;;12.40;8.00;;;32.90;5.50;;;;;;5062189;28;20461;-60
2022/07/23 12:00:43;;;;;;;9.03;8.13;;;32.80;6.00;;;;;;5065443;28;20473;-60
2022/07/23 12:03:10;;;;;;;13.73;8.30;;;32.70;6.40;;;;;;5065627;28;20969;-60
2022/07/23 12:05:39;;;;;;;9.17;8.07;;;32.70;6.60;;;;;;5066622;28;20452;-62
2022/07/23 12:08:08;;;;;;;8.97;7.90;;;32.60;6.10;;;;;;5068511;28;20495;-62
2022/07/23 12:10:37;;;;;;;10.00;8.90;;;32.70;6.50;;;;;;5070638;28;20464;-62
2022/07/23 12:13:06;;;;;;;9.70;8.70;;;32.70;5.80;;;;;;5064786;28;21026;-59
2022/07/23 12:15:37;;;;;;;9.67;8.77;;;32.70;6.10;;;;;;5063009;28;20485;-61
2022/07/23 12:18:05;;;;;;;10.00;9.03;;;32.70;6.30;;;;;;5065493;28;20920;-58
2022/07/23 12:20:35;;;;;;;9.80;8.80;;;32.60;6.10;;;;;;5064652;28;20469;-61
2022/07/23 12:23:06;;;;;;;8.97;8.07;;;32.60;6.40;;;;;;5067264;28;20456;-62
2022/07/23 12:25:34;;;;;;;9.70;8.67;;;32.50;6.70;;;;;;5066522;28;20464;-59
2022/07/23 12:28:05;;;;;;;11.30;9.50;;;32.60;6.90;;;;;;5067624;28;20483;-59
2022/07/23 12:30:34;;;;;;;10.10;9.10;;;32.60;6.60;;;;;;5062539;28;20457;-60
2022/07/23 12:33:01;;;;;;;11.30;8.60;;;32.50;8.50;;;;;;5063616;28;20457;-61
2022/07/23 12:35:34;;;;;;;11.23;8.20;;;32.00;11.40;;;;;;5064530;28;20833;-60
2022/07/23 12:38:04;;;;;;;19.10;10.10;;;31.40;10.70;;;;;;5063366;28;20663;-60
2022/07/23 12:40:33;;;;;;;13.10;8.90;;;30.70;12.50;;;;;;5065368;28;20469;-57
2022/07/23 12:43:01;;;;;;;12.60;8.90;;;30.10;13.10;;;;;;5059172;28;20853;-58
2022/07/23 12:45:41;;;;;;;15.23;8.90;;;29.80;14.50;;;;;;5070576;28;20461;-57
2022/07/23 12:48:09;;;;;;;12.67;7.60;;;29.60;15.40;;;;;;5062038;28;20500;-57
2022/07/23 12:50:42;;;;;;;11.67;8.17;;;29.20;15.60;;;;;;5063577;28;20472;-58
2022/07/23 12:53:12;;;;;;;11.87;8.40;;;28.90;16.10;;;;;;5067944;28;20552;-58
2022/07/23 12:55:40;;;;;;;12.20;8.27;;;28.70;17.30;;;;;;5063387;28;20469;-57